sensor_id;sensor_type;location;lat;lon;timestamp;P1;durP1;ratioP1;P2;durP2;ratioP2
66270;SDS011;53063;39.614;8.814;2023-04-30T00:00:56;15.63;;;5.88;;
66270;SDS011;53063;39.614;8.814;2023-04-30T00:03:22;16.58;;;5.97;;
66270;SDS011;53063;39.614;8.814;2023-04-30T00:05:51;17.40;;;5.90;;
66270;SDS011;53063;39.614;8.814;2023-04-30T00:08:17;15.95;;;5.70;;
66270;SDS011;53063;39.614;8.814;2023-04-30T00:10:43;18.48;;;6.25;;
66270;SDS011;53063;39.614;8.814;2023-04-30T00:13:09;19.42;;;6.60;;
66270;SDS011;53063;39.614;8.814;2023-04-30T00:15:38;18.35;;;6.47;;
66270;SDS011;53063;39.614;8.814;2023-04-30T00:18:04;20.80;;;7.00;;
66270;SDS011;53063;39.614;8.814;2023-04-30T00:20:31;22.77;;;7.03;;
66270;SDS011;53063;39.614;8.814;2023-04-30T00:22:59;17.52;;;5.90;;
66270;SDS011;53063;39.614;8.814;2023-04-30T00:25:25;16.02;;;6.50;;
66270;SDS011;53063;39.614;8.814;2023-04-30T00:27:51;18.73;;;6.70;;
66270;SDS011;53063;39.614;8.814;2023-04-30T00:30:17;21.50;;;6.60;;
66270;SDS011;53063;39.614;8.814;2023-04-30T00:32:43;13.45;;;6.10;;
66270;SDS011;53063;39.614;8.814;2023-04-30T00:35:10;17.90;;;5.28;;
66270;SDS011;53063;39.614;8.814;2023-04-30T00:37:36;17.98;;;5.78;;
66270;SDS011;53063;39.614;8.814;2023-04-30T00:40:02;15.38;;;6.10;;
66270;SDS011;53063;39.614;8.814;2023-04-30T00:42:29;15.93;;;5.30;;
66270;SDS011;53063;39.614;8.814;2023-04-30T00:44:54;18.05;;;5.90;;
66270;SDS011;53063;39.614;8.814;2023-04-30T00:47:20;15.88;;;5.65;;
66270;SDS011;53063;39.614;8.814;2023-04-30T00:49:47;19.80;;;6.30;;
66270;SDS011;53063;39.614;8.814;2023-04-30T00:52:13;15.48;;;4.63;;
66270;SDS011;53063;39.614;8.814;2023-04-30T00:54:39;12.25;;;4.75;;
66270;SDS011;53063;39.614;8.814;2023-04-30T00:57:06;17.17;;;5.40;;
66270;SDS011;53063;39.614;8.814;2023-04-30T00:59:33;12.98;;;4.15;;
66270;SDS011;53063;39.614;8.814;2023-04-30T01:01:59;18.90;;;5.32;;
66270;SDS011;53063;39.614;8.814;2023-04-30T01:04:26;10.20;;;4.50;;
66270;SDS011;53063;39.614;8.814;2023-04-30T01:06:53;15.75;;;4.90;;
66270;SDS011;53063;39.614;8.814;2023-04-30T01:09:19;14.27;;;4.20;;
66270;SDS011;53063;39.614;8.814;2023-04-30T01:17:16;15.38;;;6.68;;
66270;SDS011;53063;39.614;8.814;2023-04-30T01:19:52;20.10;;;6.47;;
66270;SDS011;53063;39.614;8.814;2023-04-30T01:30:14;35.65;;;17.08;;
66270;SDS011;53063;39.614;8.814;2023-04-30T01:32:41;33.90;;;19.27;;
66270;SDS011;53063;39.614;8.814;2023-04-30T01:35:07;41.88;;;21.73;;
66270;SDS011;53063;39.614;8.814;2023-04-30T01:40:42;16.52;;;8.75;;
66270;SDS011;53063;39.614;8.814;2023-04-30T01:51:41;20.48;;;7.00;;
66270;SDS011;53063;39.614;8.814;2023-04-30T01:54:29;16.17;;;7.50;;
66270;SDS011;53063;39.614;8.814;2023-04-30T01:57:03;19.45;;;6.70;;
66270;SDS011;53063;39.614;8.814;2023-04-30T01:59:32;15.27;;;7.03;;
66270;SDS011;53063;39.614;8.814;2023-04-30T02:02:02;17.55;;;6.75;;
66270;SDS011;53063;39.614;8.814;2023-04-30T02:04:29;16.63;;;6.93;;
66270;SDS011;53063;39.614;8.814;2023-04-30T02:06:55;16.73;;;7.00;;
66270;SDS011;53063;39.614;8.814;2023-04-30T02:09:23;19.83;;;6.97;;
66270;SDS011;53063;39.614;8.814;2023-04-30T02:11:49;20.88;;;7.45;;
66270;SDS011;53063;39.614;8.814;2023-04-30T02:14:15;15.32;;;6.50;;
66270;SDS011;53063;39.614;8.814;2023-04-30T02:16:41;14.77;;;6.07;;
66270;SDS011;53063;39.614;8.814;2023-04-30T02:19:07;14.57;;;7.28;;
66270;SDS011;53063;39.614;8.814;2023-04-30T02:21:33;13.82;;;5.93;;
66270;SDS011;53063;39.614;8.814;2023-04-30T02:23:59;11.40;;;6.10;;
66270;SDS011;53063;39.614;8.814;2023-04-30T02:26:25;14.68;;;5.50;;
66270;SDS011;53063;39.614;8.814;2023-04-30T02:28:52;13.10;;;5.13;;
66270;SDS011;53063;39.614;8.814;2023-04-30T02:31:18;13.20;;;4.57;;
66270;SDS011;53063;39.614;8.814;2023-04-30T02:33:44;13.07;;;5.03;;
66270;SDS011;53063;39.614;8.814;2023-04-30T02:36:10;17.48;;;5.57;;
66270;SDS011;53063;39.614;8.814;2023-04-30T02:38:36;9.98;;;4.80;;
66270;SDS011;53063;39.614;8.814;2023-04-30T02:41:02;8.75;;;4.32;;
66270;SDS011;53063;39.614;8.814;2023-04-30T02:43:28;9.88;;;4.25;;
66270;SDS011;53063;39.614;8.814;2023-04-30T02:45:54;12.00;;;4.38;;
66270;SDS011;53063;39.614;8.814;2023-04-30T02:48:20;9.30;;;4.63;;
66270;SDS011;53063;39.614;8.814;2023-04-30T02:50:46;14.57;;;4.72;;
66270;SDS011;53063;39.614;8.814;2023-04-30T02:53:12;13.43;;;4.63;;
66270;SDS011;53063;39.614;8.814;2023-04-30T02:55:38;13.88;;;5.43;;
66270;SDS011;53063;39.614;8.814;2023-04-30T02:58:03;11.80;;;4.82;;
66270;SDS011;53063;39.614;8.814;2023-04-30T03:00:29;17.40;;;5.32;;
66270;SDS011;53063;39.614;8.814;2023-04-30T03:02:55;16.17;;;5.75;;
66270;SDS011;53063;39.614;8.814;2023-04-30T03:05:21;14.38;;;4.82;;
66270;SDS011;53063;39.614;8.814;2023-04-30T03:07:48;13.48;;;4.85;;
66270;SDS011;53063;39.614;8.814;2023-04-30T03:10:14;15.43;;;5.50;;
66270;SDS011;53063;39.614;8.814;2023-04-30T03:12:40;12.80;;;5.13;;
66270;SDS011;53063;39.614;8.814;2023-04-30T03:15:06;14.02;;;5.53;;
66270;SDS011;53063;39.614;8.814;2023-04-30T03:17:33;17.65;;;6.15;;
66270;SDS011;53063;39.614;8.814;2023-04-30T03:19:59;15.75;;;4.82;;
66270;SDS011;53063;39.614;8.814;2023-04-30T03:22:25;15.98;;;5.38;;
66270;SDS011;53063;39.614;8.814;2023-04-30T03:24:51;15.55;;;5.70;;
66270;SDS011;53063;39.614;8.814;2023-04-30T03:27:17;16.88;;;5.63;;
66270;SDS011;53063;39.614;8.814;2023-04-30T03:29:43;14.70;;;4.93;;
66270;SDS011;53063;39.614;8.814;2023-04-30T03:32:09;22.05;;;4.88;;
66270;SDS011;53063;39.614;8.814;2023-04-30T03:34:35;12.98;;;4.80;;
66270;SDS011;53063;39.614;8.814;2023-04-30T03:37:02;22.30;;;6.15;;
66270;SDS011;53063;39.614;8.814;2023-04-30T03:39:28;16.20;;;5.00;;
66270;SDS011;53063;39.614;8.814;2023-04-30T03:41:54;20.35;;;6.25;;
66270;SDS011;53063;39.614;8.814;2023-04-30T03:44:20;17.30;;;5.38;;
66270;SDS011;53063;39.614;8.814;2023-04-30T03:46:47;17.50;;;5.82;;
66270;SDS011;53063;39.614;8.814;2023-04-30T03:49:13;20.20;;;5.85;;
66270;SDS011;53063;39.614;8.814;2023-04-30T03:51:39;15.70;;;6.05;;
66270;SDS011;53063;39.614;8.814;2023-04-30T03:54:06;24.38;;;5.93;;
66270;SDS011;53063;39.614;8.814;2023-04-30T03:56:32;15.18;;;6.45;;
66270;SDS011;53063;39.614;8.814;2023-04-30T03:58:59;17.45;;;6.18;;
66270;SDS011;53063;39.614;8.814;2023-04-30T04:01:26;24.95;;;7.40;;
66270;SDS011;53063;39.614;8.814;2023-04-30T04:03:53;15.43;;;6.32;;
66270;SDS011;53063;39.614;8.814;2023-04-30T04:06:20;18.15;;;6.68;;
66270;SDS011;53063;39.614;8.814;2023-04-30T04:08:46;15.57;;;5.53;;
66270;SDS011;53063;39.614;8.814;2023-04-30T04:11:12;18.35;;;6.32;;
66270;SDS011;53063;39.614;8.814;2023-04-30T04:13:38;14.68;;;5.47;;
66270;SDS011;53063;39.614;8.814;2023-04-30T04:16:05;13.80;;;5.20;;
66270;SDS011;53063;39.614;8.814;2023-04-30T04:18:33;13.80;;;5.35;;
66270;SDS011;53063;39.614;8.814;2023-04-30T04:20:59;16.58;;;5.85;;
66270;SDS011;53063;39.614;8.814;2023-04-30T04:23:27;15.50;;;5.50;;
66270;SDS011;53063;39.614;8.814;2023-04-30T04:25:53;15.25;;;5.57;;
66270;SDS011;53063;39.614;8.814;2023-04-30T04:28:20;11.73;;;6.15;;
66270;SDS011;53063;39.614;8.814;2023-04-30T04:30:46;13.95;;;5.35;;
66270;SDS011;53063;39.614;8.814;2023-04-30T04:33:12;22.15;;;7.03;;
66270;SDS011;53063;39.614;8.814;2023-04-30T04:35:37;14.80;;;5.57;;
66270;SDS011;53063;39.614;8.814;2023-04-30T04:38:04;14.57;;;6.40;;
66270;SDS011;53063;39.614;8.814;2023-04-30T04:40:31;16.33;;;6.30;;
66270;SDS011;53063;39.614;8.814;2023-04-30T04:42:56;17.60;;;6.15;;
66270;SDS011;53063;39.614;8.814;2023-04-30T04:45:22;20.20;;;6.53;;
66270;SDS011;53063;39.614;8.814;2023-04-30T04:47:49;18.40;;;6.82;;
66270;SDS011;53063;39.614;8.814;2023-04-30T04:50:15;16.85;;;6.30;;
66270;SDS011;53063;39.614;8.814;2023-04-30T04:52:42;21.05;;;7.00;;
66270;SDS011;53063;39.614;8.814;2023-04-30T04:55:08;14.00;;;5.63;;
66270;SDS011;53063;39.614;8.814;2023-04-30T04:57:35;15.73;;;6.47;;
66270;SDS011;53063;39.614;8.814;2023-04-30T05:00:00;11.98;;;5.50;;
66270;SDS011;53063;39.614;8.814;2023-04-30T05:02:26;18.42;;;5.90;;
66270;SDS011;53063;39.614;8.814;2023-04-30T05:04:54;14.32;;;5.45;;
66270;SDS011;53063;39.614;8.814;2023-04-30T05:07:21;16.95;;;5.97;;
66270;SDS011;53063;39.614;8.814;2023-04-30T05:09:47;13.20;;;5.25;;
66270;SDS011;53063;39.614;8.814;2023-04-30T05:12:13;18.55;;;5.82;;
66270;SDS011;53063;39.614;8.814;2023-04-30T05:14:39;12.35;;;5.88;;
66270;SDS011;53063;39.614;8.814;2023-04-30T05:17:05;16.52;;;5.65;;
66270;SDS011;53063;39.614;8.814;2023-04-30T05:19:31;15.05;;;6.05;;
66270;SDS011;53063;39.614;8.814;2023-04-30T05:21:57;11.80;;;6.18;;
66270;SDS011;53063;39.614;8.814;2023-04-30T05:24:25;14.50;;;6.68;;
66270;SDS011;53063;39.614;8.814;2023-04-30T05:26:52;15.90;;;5.90;;
66270;SDS011;53063;39.614;8.814;2023-04-30T05:29:18;19.60;;;6.55;;
66270;SDS011;53063;39.614;8.814;2023-04-30T05:31:44;13.90;;;6.57;;
66270;SDS011;53063;39.614;8.814;2023-04-30T05:34:09;18.17;;;6.70;;
66270;SDS011;53063;39.614;8.814;2023-04-30T05:36:36;17.48;;;6.32;;
66270;SDS011;53063;39.614;8.814;2023-04-30T05:39:02;15.90;;;7.90;;
66270;SDS011;53063;39.614;8.814;2023-04-30T05:41:28;20.27;;;6.93;;
66270;SDS011;53063;39.614;8.814;2023-04-30T05:43:54;14.70;;;7.38;;
66270;SDS011;53063;39.614;8.814;2023-04-30T05:46:20;17.83;;;7.20;;
66270;SDS011;53063;39.614;8.814;2023-04-30T05:48:46;23.15;;;7.38;;
66270;SDS011;53063;39.614;8.814;2023-04-30T05:51:12;22.40;;;6.50;;
66270;SDS011;53063;39.614;8.814;2023-04-30T05:53:38;18.95;;;6.25;;
66270;SDS011;53063;39.614;8.814;2023-04-30T05:56:04;18.58;;;6.05;;
66270;SDS011;53063;39.614;8.814;2023-04-30T05:58:30;15.95;;;6.53;;
66270;SDS011;53063;39.614;8.814;2023-04-30T06:00:57;14.77;;;6.75;;
66270;SDS011;53063;39.614;8.814;2023-04-30T06:03:23;19.83;;;8.13;;
66270;SDS011;53063;39.614;8.814;2023-04-30T06:05:49;15.48;;;7.32;;
66270;SDS011;53063;39.614;8.814;2023-04-30T06:08:15;17.15;;;7.15;;
66270;SDS011;53063;39.614;8.814;2023-04-30T06:10:41;14.25;;;6.80;;
66270;SDS011;53063;39.614;8.814;2023-04-30T06:13:07;13.52;;;6.20;;
66270;SDS011;53063;39.614;8.814;2023-04-30T06:15:33;16.17;;;6.50;;
66270;SDS011;53063;39.614;8.814;2023-04-30T06:17:59;16.02;;;5.88;;
66270;SDS011;53063;39.614;8.814;2023-04-30T06:20:25;16.45;;;5.93;;
66270;SDS011;53063;39.614;8.814;2023-04-30T06:22:51;11.32;;;5.60;;
66270;SDS011;53063;39.614;8.814;2023-04-30T06:25:17;16.63;;;6.78;;
66270;SDS011;53063;39.614;8.814;2023-04-30T06:27:45;16.13;;;5.95;;
66270;SDS011;53063;39.614;8.814;2023-04-30T06:30:11;10.65;;;5.82;;
66270;SDS011;53063;39.614;8.814;2023-04-30T06:32:37;16.05;;;6.10;;
66270;SDS011;53063;39.614;8.814;2023-04-30T06:35:03;20.30;;;6.05;;
66270;SDS011;53063;39.614;8.814;2023-04-30T06:37:29;16.17;;;5.63;;
66270;SDS011;53063;39.614;8.814;2023-04-30T06:40:02;9.53;;;5.57;;
66270;SDS011;53063;39.614;8.814;2023-04-30T06:42:29;20.92;;;6.00;;
66270;SDS011;53063;39.614;8.814;2023-04-30T06:44:59;11.43;;;5.68;;
66270;SDS011;53063;39.614;8.814;2023-04-30T06:47:29;14.93;;;5.18;;
66270;SDS011;53063;39.614;8.814;2023-04-30T06:49:59;13.30;;;4.63;;
66270;SDS011;53063;39.614;8.814;2023-04-30T06:52:25;15.55;;;5.13;;
66270;SDS011;53063;39.614;8.814;2023-04-30T06:54:51;9.30;;;4.22;;
66270;SDS011;53063;39.614;8.814;2023-04-30T06:57:17;10.55;;;4.32;;
66270;SDS011;53063;39.614;8.814;2023-04-30T06:59:43;9.05;;;4.82;;
66270;SDS011;53063;39.614;8.814;2023-04-30T07:02:09;12.82;;;5.07;;
66270;SDS011;53063;39.614;8.814;2023-04-30T07:04:35;16.98;;;5.68;;
66270;SDS011;53063;39.614;8.814;2023-04-30T07:07:01;9.48;;;4.85;;
66270;SDS011;53063;39.614;8.814;2023-04-30T07:09:27;12.23;;;5.10;;
66270;SDS011;53063;39.614;8.814;2023-04-30T07:11:54;12.05;;;5.47;;
66270;SDS011;53063;39.614;8.814;2023-04-30T07:14:21;14.45;;;5.32;;
66270;SDS011;53063;39.614;8.814;2023-04-30T07:16:50;12.10;;;6.70;;
66270;SDS011;53063;39.614;8.814;2023-04-30T07:19:16;14.65;;;6.18;;
66270;SDS011;53063;39.614;8.814;2023-04-30T07:21:42;13.98;;;5.65;;
66270;SDS011;53063;39.614;8.814;2023-04-30T07:24:08;16.63;;;5.13;;
66270;SDS011;53063;39.614;8.814;2023-04-30T07:26:34;15.15;;;5.90;;
66270;SDS011;53063;39.614;8.814;2023-04-30T07:29:00;14.48;;;5.72;;
66270;SDS011;53063;39.614;8.814;2023-04-30T07:31:27;20.55;;;6.93;;
66270;SDS011;53063;39.614;8.814;2023-04-30T07:33:53;19.13;;;6.90;;
66270;SDS011;53063;39.614;8.814;2023-04-30T07:36:20;19.95;;;7.20;;
66270;SDS011;53063;39.614;8.814;2023-04-30T07:38:47;15.27;;;7.78;;
66270;SDS011;53063;39.614;8.814;2023-04-30T07:41:13;17.63;;;7.82;;
66270;SDS011;53063;39.614;8.814;2023-04-30T07:43:39;20.67;;;9.48;;
66270;SDS011;53063;39.614;8.814;2023-04-30T07:46:04;16.92;;;6.57;;
66270;SDS011;53063;39.614;8.814;2023-04-30T07:48:30;14.57;;;6.72;;
66270;SDS011;53063;39.614;8.814;2023-04-30T07:50:56;17.15;;;6.90;;
66270;SDS011;53063;39.614;8.814;2023-04-30T07:53:22;16.70;;;6.75;;
66270;SDS011;53063;39.614;8.814;2023-04-30T07:55:48;16.35;;;6.53;;
66270;SDS011;53063;39.614;8.814;2023-04-30T07:58:14;18.80;;;6.10;;
66270;SDS011;53063;39.614;8.814;2023-04-30T08:00:40;14.48;;;6.45;;
66270;SDS011;53063;39.614;8.814;2023-04-30T08:03:06;11.85;;;5.90;;
66270;SDS011;53063;39.614;8.814;2023-04-30T08:05:32;16.75;;;6.07;;
66270;SDS011;53063;39.614;8.814;2023-04-30T08:07:58;14.20;;;6.22;;
66270;SDS011;53063;39.614;8.814;2023-04-30T08:10:25;11.60;;;5.53;;
66270;SDS011;53063;39.614;8.814;2023-04-30T08:12:51;17.08;;;6.32;;
66270;SDS011;53063;39.614;8.814;2023-04-30T08:15:17;12.38;;;5.80;;
66270;SDS011;53063;39.614;8.814;2023-04-30T08:17:49;16.75;;;6.35;;
66270;SDS011;53063;39.614;8.814;2023-04-30T08:20:15;30.65;;;23.13;;
66270;SDS011;53063;39.614;8.814;2023-04-30T08:22:42;45.05;;;26.05;;
66270;SDS011;53063;39.614;8.814;2023-04-30T08:25:11;100.32;;;65.43;;
66270;SDS011;53063;39.614;8.814;2023-04-30T08:27:37;42.58;;;25.92;;
66270;SDS011;53063;39.614;8.814;2023-04-30T08:30:04;58.13;;;32.63;;
66270;SDS011;53063;39.614;8.814;2023-04-30T08:32:34;65.90;;;45.90;;
66270;SDS011;53063;39.614;8.814;2023-04-30T08:35:04;97.30;;;58.33;;
66270;SDS011;53063;39.614;8.814;2023-04-30T08:37:30;50.88;;;26.75;;
66270;SDS011;53063;39.614;8.814;2023-04-30T08:39:57;75.07;;;41.00;;
66270;SDS011;53063;39.614;8.814;2023-04-30T08:42:33;47.20;;;25.48;;
66270;SDS011;53063;39.614;8.814;2023-04-30T08:45:02;60.15;;;31.80;;
66270;SDS011;53063;39.614;8.814;2023-04-30T08:47:29;44.13;;;22.98;;
66270;SDS011;53063;39.614;8.814;2023-04-30T08:49:55;86.00;;;38.97;;
66270;SDS011;53063;39.614;8.814;2023-04-30T08:52:21;33.97;;;17.23;;
66270;SDS011;53063;39.614;8.814;2023-04-30T08:54:51;37.45;;;18.27;;
66270;SDS011;53063;39.614;8.814;2023-04-30T08:57:19;31.80;;;17.70;;
66270;SDS011;53063;39.614;8.814;2023-04-30T08:59:45;38.78;;;18.70;;
66270;SDS011;53063;39.614;8.814;2023-04-30T09:02:12;33.30;;;15.52;;
66270;SDS011;53063;39.614;8.814;2023-04-30T09:04:38;46.40;;;26.05;;
66270;SDS011;53063;39.614;8.814;2023-04-30T09:07:04;54.65;;;30.23;;
66270;SDS011;53063;39.614;8.814;2023-04-30T09:09:36;35.88;;;20.23;;
66270;SDS011;53063;39.614;8.814;2023-04-30T09:12:16;36.33;;;16.95;;
66270;SDS011;53063;39.614;8.814;2023-04-30T09:14:59;30.40;;;13.40;;
66270;SDS011;53063;39.614;8.814;2023-04-30T09:17:27;34.15;;;15.73;;
66270;SDS011;53063;39.614;8.814;2023-04-30T09:19:54;44.88;;;23.58;;
66270;SDS011;53063;39.614;8.814;2023-04-30T09:22:42;32.03;;;15.98;;
66270;SDS011;53063;39.614;8.814;2023-04-30T09:25:08;41.80;;;18.92;;
66270;SDS011;53063;39.614;8.814;2023-04-30T09:27:35;35.80;;;16.85;;
66270;SDS011;53063;39.614;8.814;2023-04-30T09:30:01;41.05;;;20.38;;
66270;SDS011;53063;39.614;8.814;2023-04-30T09:32:28;38.35;;;17.17;;
66270;SDS011;53063;39.614;8.814;2023-04-30T09:34:54;34.20;;;17.88;;
66270;SDS011;53063;39.614;8.814;2023-04-30T09:37:20;41.08;;;21.98;;
66270;SDS011;53063;39.614;8.814;2023-04-30T09:42:18;55.92;;;28.75;;
66270;SDS011;53063;39.614;8.814;2023-04-30T09:44:44;49.65;;;27.73;;
66270;SDS011;53063;39.614;8.814;2023-04-30T09:47:14;35.42;;;17.08;;
66270;SDS011;53063;39.614;8.814;2023-04-30T09:49:47;26.75;;;13.05;;
66270;SDS011;53063;39.614;8.814;2023-04-30T09:52:17;25.48;;;13.70;;
66270;SDS011;53063;39.614;8.814;2023-04-30T09:54:44;71.53;;;37.97;;
66270;SDS011;53063;39.614;8.814;2023-04-30T09:57:15;131.73;;;82.72;;
66270;SDS011;53063;39.614;8.814;2023-04-30T09:59:43;49.97;;;25.30;;
66270;SDS011;53063;39.614;8.814;2023-04-30T10:02:12;35.92;;;20.83;;
66270;SDS011;53063;39.614;8.814;2023-04-30T10:04:43;43.88;;;20.60;;
66270;SDS011;53063;39.614;8.814;2023-04-30T10:07:17;24.30;;;14.35;;
66270;SDS011;53063;39.614;8.814;2023-04-30T10:12:26;36.88;;;16.77;;
66270;SDS011;53063;39.614;8.814;2023-04-30T10:15:08;28.90;;;13.55;;
66270;SDS011;53063;39.614;8.814;2023-04-30T10:17:49;16.33;;;9.55;;
66270;SDS011;53063;39.614;8.814;2023-04-30T10:20:21;21.90;;;11.52;;
66270;SDS011;53063;39.614;8.814;2023-04-30T10:22:48;28.15;;;11.93;;
66270;SDS011;53063;39.614;8.814;2023-04-30T10:25:16;17.27;;;9.65;;
66270;SDS011;53063;39.614;8.814;2023-04-30T10:27:42;23.45;;;11.43;;
66270;SDS011;53063;39.614;8.814;2023-04-30T10:30:09;24.40;;;12.45;;
66270;SDS011;53063;39.614;8.814;2023-04-30T10:35:27;25.25;;;11.45;;
66270;SDS011;53063;39.614;8.814;2023-04-30T10:38:03;23.60;;;10.00;;
66270;SDS011;53063;39.614;8.814;2023-04-30T10:40:39;24.63;;;11.75;;
66270;SDS011;53063;39.614;8.814;2023-04-30T10:43:05;22.75;;;10.95;;
66270;SDS011;53063;39.614;8.814;2023-04-30T10:45:34;20.52;;;10.80;;
66270;SDS011;53063;39.614;8.814;2023-04-30T10:48:02;23.73;;;12.82;;
66270;SDS011;53063;39.614;8.814;2023-04-30T10:50:29;24.95;;;11.95;;
66270;SDS011;53063;39.614;8.814;2023-04-30T10:53:01;26.52;;;13.60;;
66270;SDS011;53063;39.614;8.814;2023-04-30T10:55:31;26.48;;;12.00;;
66270;SDS011;53063;39.614;8.814;2023-04-30T10:57:57;21.80;;;10.70;;
66270;SDS011;53063;39.614;8.814;2023-04-30T11:00:27;24.42;;;11.55;;
66270;SDS011;53063;39.614;8.814;2023-04-30T11:02:57;26.15;;;11.95;;
66270;SDS011;53063;39.614;8.814;2023-04-30T11:05:37;22.52;;;12.60;;
66270;SDS011;53063;39.614;8.814;2023-04-30T11:08:04;27.40;;;14.85;;
66270;SDS011;53063;39.614;8.814;2023-04-30T11:10:35;24.98;;;12.38;;
66270;SDS011;53063;39.614;8.814;2023-04-30T11:13:04;24.88;;;13.20;;
66270;SDS011;53063;39.614;8.814;2023-04-30T11:15:42;27.05;;;13.50;;
66270;SDS011;53063;39.614;8.814;2023-04-30T11:18:09;23.80;;;13.63;;
66270;SDS011;53063;39.614;8.814;2023-04-30T11:20:47;25.27;;;13.57;;
66270;SDS011;53063;39.614;8.814;2023-04-30T11:23:17;24.42;;;13.30;;
66270;SDS011;53063;39.614;8.814;2023-04-30T11:25:47;21.88;;;12.10;;
66270;SDS011;53063;39.614;8.814;2023-04-30T11:28:14;28.13;;;13.00;;
66270;SDS011;53063;39.614;8.814;2023-04-30T11:30:58;23.70;;;12.57;;
66270;SDS011;53063;39.614;8.814;2023-04-30T11:33:25;25.33;;;12.05;;
66270;SDS011;53063;39.614;8.814;2023-04-30T11:35:57;21.63;;;11.40;;
66270;SDS011;53063;39.614;8.814;2023-04-30T11:38:25;22.60;;;11.55;;
66270;SDS011;53063;39.614;8.814;2023-04-30T11:40:52;19.60;;;10.35;;
66270;SDS011;53063;39.614;8.814;2023-04-30T11:43:22;17.42;;;9.60;;
66270;SDS011;53063;39.614;8.814;2023-04-30T11:46:00;19.58;;;9.73;;
66270;SDS011;53063;39.614;8.814;2023-04-30T11:48:31;22.38;;;9.82;;
66270;SDS011;53063;39.614;8.814;2023-04-30T11:50:58;21.30;;;9.45;;
66270;SDS011;53063;39.614;8.814;2023-04-30T11:53:26;19.55;;;10.23;;
66270;SDS011;53063;39.614;8.814;2023-04-30T11:55:53;17.73;;;9.25;;
66270;SDS011;53063;39.614;8.814;2023-04-30T11:58:19;21.30;;;8.18;;
66270;SDS011;53063;39.614;8.814;2023-04-30T12:00:46;19.75;;;8.27;;
66270;SDS011;53063;39.614;8.814;2023-04-30T12:03:13;17.88;;;7.15;;
66270;SDS011;53063;39.614;8.814;2023-04-30T12:05:41;15.73;;;7.25;;
66270;SDS011;53063;39.614;8.814;2023-04-30T12:08:07;11.50;;;6.32;;
66270;SDS011;53063;39.614;8.814;2023-04-30T12:10:34;12.45;;;6.35;;
66270;SDS011;53063;39.614;8.814;2023-04-30T12:13:00;18.30;;;6.35;;
66270;SDS011;53063;39.614;8.814;2023-04-30T12:15:27;12.75;;;5.72;;
66270;SDS011;53063;39.614;8.814;2023-04-30T12:17:54;15.90;;;5.47;;
66270;SDS011;53063;39.614;8.814;2023-04-30T12:20:22;14.15;;;5.22;;
66270;SDS011;53063;39.614;8.814;2023-04-30T12:22:50;12.77;;;5.28;;
66270;SDS011;53063;39.614;8.814;2023-04-30T12:25:17;12.32;;;4.80;;
66270;SDS011;53063;39.614;8.814;2023-04-30T12:27:45;8.07;;;4.72;;
66270;SDS011;53063;39.614;8.814;2023-04-30T12:30:12;9.43;;;3.90;;
66270;SDS011;53063;39.614;8.814;2023-04-30T12:32:42;12.07;;;4.80;;
66270;SDS011;53063;39.614;8.814;2023-04-30T12:35:14;13.73;;;4.63;;
66270;SDS011;53063;39.614;8.814;2023-04-30T12:37:41;10.35;;;5.47;;
66270;SDS011;53063;39.614;8.814;2023-04-30T12:40:09;13.43;;;4.60;;
66270;SDS011;53063;39.614;8.814;2023-04-30T12:42:36;12.05;;;4.47;;
66270;SDS011;53063;39.614;8.814;2023-04-30T12:45:02;11.02;;;4.53;;
66270;SDS011;53063;39.614;8.814;2023-04-30T12:47:28;13.15;;;4.75;;
66270;SDS011;53063;39.614;8.814;2023-04-30T12:49:54;12.35;;;5.13;;
66270;SDS011;53063;39.614;8.814;2023-04-30T12:52:24;8.05;;;4.47;;
66270;SDS011;53063;39.614;8.814;2023-04-30T12:54:51;8.98;;;4.03;;
66270;SDS011;53063;39.614;8.814;2023-04-30T12:57:18;17.27;;;7.47;;
66270;SDS011;53063;39.614;8.814;2023-04-30T12:59:56;9.77;;;4.55;;
66270;SDS011;53063;39.614;8.814;2023-04-30T13:02:24;9.35;;;4.60;;
66270;SDS011;53063;39.614;8.814;2023-04-30T13:04:56;12.48;;;4.20;;
66270;SDS011;53063;39.614;8.814;2023-04-30T13:07:22;8.40;;;4.65;;
66270;SDS011;53063;39.614;8.814;2023-04-30T13:09:48;12.20;;;5.00;;
66270;SDS011;53063;39.614;8.814;2023-04-30T13:12:13;9.20;;;5.07;;
66270;SDS011;53063;39.614;8.814;2023-04-30T13:14:39;10.07;;;5.20;;
66270;SDS011;53063;39.614;8.814;2023-04-30T13:17:05;12.02;;;5.57;;
66270;SDS011;53063;39.614;8.814;2023-04-30T13:19:33;12.60;;;4.90;;
66270;SDS011;53063;39.614;8.814;2023-04-30T13:22:00;13.05;;;5.70;;
66270;SDS011;53063;39.614;8.814;2023-04-30T13:24:28;12.50;;;5.22;;
66270;SDS011;53063;39.614;8.814;2023-04-30T13:26:55;12.07;;;6.07;;
66270;SDS011;53063;39.614;8.814;2023-04-30T13:29:23;12.77;;;6.30;;
66270;SDS011;53063;39.614;8.814;2023-04-30T13:31:49;13.95;;;7.43;;
66270;SDS011;53063;39.614;8.814;2023-04-30T13:34:15;11.98;;;6.28;;
66270;SDS011;53063;39.614;8.814;2023-04-30T13:36:41;12.07;;;6.28;;
66270;SDS011;53063;39.614;8.814;2023-04-30T13:39:07;15.10;;;6.97;;
66270;SDS011;53063;39.614;8.814;2023-04-30T13:41:32;10.07;;;5.30;;
66270;SDS011;53063;39.614;8.814;2023-04-30T13:43:58;14.80;;;5.90;;
66270;SDS011;53063;39.614;8.814;2023-04-30T13:46:24;11.98;;;6.13;;
66270;SDS011;53063;39.614;8.814;2023-04-30T13:48:50;9.02;;;4.90;;
66270;SDS011;53063;39.614;8.814;2023-04-30T13:51:17;11.50;;;5.10;;
66270;SDS011;53063;39.614;8.814;2023-04-30T13:53:44;12.38;;;6.20;;
66270;SDS011;53063;39.614;8.814;2023-04-30T13:56:10;11.40;;;5.45;;
66270;SDS011;53063;39.614;8.814;2023-04-30T13:58:36;7.65;;;4.95;;
66270;SDS011;53063;39.614;8.814;2023-04-30T14:01:02;14.25;;;5.53;;
66270;SDS011;53063;39.614;8.814;2023-04-30T14:03:29;11.10;;;5.70;;
66270;SDS011;53063;39.614;8.814;2023-04-30T14:05:55;15.32;;;6.03;;
66270;SDS011;53063;39.614;8.814;2023-04-30T14:08:22;12.75;;;5.25;;
66270;SDS011;53063;39.614;8.814;2023-04-30T14:10:48;11.32;;;5.18;;
66270;SDS011;53063;39.614;8.814;2023-04-30T14:13:13;10.57;;;4.40;;
66270;SDS011;53063;39.614;8.814;2023-04-30T14:15:39;11.20;;;4.45;;
66270;SDS011;53063;39.614;8.814;2023-04-30T14:18:05;10.65;;;4.22;;
66270;SDS011;53063;39.614;8.814;2023-04-30T14:20:31;9.88;;;4.20;;
66270;SDS011;53063;39.614;8.814;2023-04-30T14:22:57;7.15;;;4.03;;
66270;SDS011;53063;39.614;8.814;2023-04-30T14:25:23;10.52;;;4.32;;
66270;SDS011;53063;39.614;8.814;2023-04-30T14:27:49;11.32;;;4.15;;
66270;SDS011;53063;39.614;8.814;2023-04-30T14:30:15;9.88;;;3.28;;
66270;SDS011;53063;39.614;8.814;2023-04-30T14:32:40;10.30;;;4.20;;
66270;SDS011;53063;39.614;8.814;2023-04-30T14:35:06;10.43;;;4.05;;
66270;SDS011;53063;39.614;8.814;2023-04-30T14:37:33;9.90;;;3.92;;
66270;SDS011;53063;39.614;8.814;2023-04-30T14:39:59;13.13;;;4.30;;
66270;SDS011;53063;39.614;8.814;2023-04-30T14:42:27;12.60;;;4.65;;
66270;SDS011;53063;39.614;8.814;2023-04-30T14:44:53;10.35;;;4.20;;
66270;SDS011;53063;39.614;8.814;2023-04-30T14:47:19;14.50;;;5.45;;
66270;SDS011;53063;39.614;8.814;2023-04-30T14:49:45;12.48;;;4.60;;
66270;SDS011;53063;39.614;8.814;2023-04-30T14:52:12;10.18;;;4.18;;
66270;SDS011;53063;39.614;8.814;2023-04-30T14:54:38;14.50;;;4.93;;
66270;SDS011;53063;39.614;8.814;2023-04-30T14:57:05;8.20;;;4.13;;
66270;SDS011;53063;39.614;8.814;2023-04-30T14:59:31;8.98;;;4.38;;
66270;SDS011;53063;39.614;8.814;2023-04-30T15:01:59;12.63;;;4.22;;
66270;SDS011;53063;39.614;8.814;2023-04-30T15:04:25;9.07;;;4.13;;
66270;SDS011;53063;39.614;8.814;2023-04-30T15:06:50;11.85;;;4.10;;